< < Back
Terminal Aerodrome Forecast


Current Version              Previous Versions:   1  2  3  4  5  6  7  8  9  

Terminal Aerodrome Forecast

382
FTUS42 KFFC 282158 AAB
TAFPDK
TAF AMD
KPDK 282158Z 2822/2918 32012G18KT P6SM SCT150
     FM290000 32008KT P6SM SCT150
     FM290500 00000KT P6SM SKC
     FM291200 09005KT P6SM SKC
     FM291600 12007KT P6SM SKC=



Latest METAR

609
SAUS70 KWBC 291200
MTRPDK
METAR KPDK 291153Z 00000KT 7SM CLR M03/M06 A3036 RMK AO2 SLP295
T10281061 10017 21039 53018


USA.gov is the U.S. government's official web portal to all federal, state and local government web resources and services.